Time;durP1;ratioP1;P1;durP2;ratioP2;P2;SDS_P1;SDS_P2;PMS_P1;PMS_P2;Temp;Humidity;BMP_temperature;BMP_pressure;BME280_temperature;BME280_humidity;BME280_pressure;Samples;Min_cycle;Max_cycle;Signal;HPM_P1;HPM_P2
2024/01/12 15:49:43;;;;;;;34.38;15.43;;;-1.00;99.90;;;;;;5102546;27;20109;-53
2024/01/12 15:52:13;;;;;;;41.73;17.83;;;-1.10;99.90;;;;;;5099718;28;20450;-52
2024/01/12 15:54:42;;;;;;;44.65;18.88;;;-1.10;99.90;;;;;;5104127;28;20455;-53
2024/01/12 15:57:08;;;;;;;46.58;20.15;;;-1.10;99.90;;;;;;5095243;28;20029;-52
2024/01/12 15:59:34;;;;;;;51.83;23.17;;;-1.00;99.90;;;;;;5089844;28;20043;-52
2024/01/12 16:01:59;;;;;;;49.73;20.93;;;-1.10;99.90;;;;;;5083972;28;20451;-50
2024/01/12 16:04:25;;;;;;;79.57;29.87;;;-1.10;99.90;;;;;;5085022;28;20042;-51
2024/01/12 16:06:52;;;;;;;82.53;27.88;;;-1.10;99.90;;;;;;5092255;28;20523;-52
2024/01/12 16:09:19;;;;;;;59.13;22.73;;;-1.10;99.90;;;;;;5092769;28;20051;-55
2024/01/12 16:11:44;;;;;;;33.80;15.50;;;-1.20;99.90;;;;;;5093161;28;20036;-51
2024/01/12 16:14:10;;;;;;;36.17;16.50;;;-1.20;99.90;;;;;;5094281;28;20354;-51
2024/01/12 16:16:35;;;;;;;32.60;15.57;;;-1.20;99.90;;;;;;5092308;28;20473;-55
2024/01/12 16:19:02;;;;;;;36.63;16.48;;;-1.20;99.90;;;;;;5103088;28;20519;-53
2024/01/12 16:21:35;;;;;;;46.45;19.23;;;-1.20;99.90;;;;;;5102934;28;20062;-53
2024/01/12 16:24:02;;;;;;;38.35;17.77;;;-1.20;99.90;;;;;;5098743;28;20097;-54
2024/01/12 16:26:28;;;;;;;39.35;17.25;;;-1.30;99.90;;;;;;5093814;28;20632;-55
2024/01/12 16:28:56;;;;;;;39.27;17.13;;;-1.30;99.90;;;;;;5090880;28;20044;-54
2024/01/12 16:31:22;;;;;;;41.47;18.23;;;-1.30;99.90;;;;;;5086921;28;20034;-53
2024/01/12 16:33:48;;;;;;;45.42;19.10;;;-1.30;99.90;;;;;;5082989;28;20036;-52
2024/01/12 16:36:13;;;;;;;43.28;18.90;;;-1.30;99.90;;;;;;5090305;28;20040;-54
2024/01/12 16:38:39;;;;;;;46.22;19.88;;;-1.30;99.90;;;;;;5097282;28;20020;-51
2024/01/12 16:41:05;;;;;;;33.85;16.10;;;-1.30;99.90;;;;;;5103380;28;20032;-52
2024/01/12 16:43:30;;;;;;;36.75;16.58;;;-1.30;99.90;;;;;;5103369;28;20038;-55
2024/01/12 16:45:56;;;;;;;38.42;17.13;;;-1.30;99.90;;;;;;5090390;28;20051;-53
2024/01/12 16:48:21;;;;;;;34.97;16.42;;;-1.20;99.90;;;;;;5054330;28;20143;-56
2024/01/12 16:50:47;;;;;;;36.60;17.55;;;-1.30;99.90;;;;;;5056733;28;20036;-51
2024/01/12 16:53:14;;;;;;;35.90;14.80;;;-1.30;99.90;;;;;;5058568;28;20056;-52
2024/01/12 16:55:40;;;;;;;34.95;15.02;;;-1.30;99.90;;;;;;5056818;28;20138;-52
2024/01/12 16:58:05;;;;;;;43.72;18.15;;;-1.30;99.90;;;;;;5057077;28;20161;-53
2024/01/12 17:00:31;;;;;;;35.67;16.45;;;-1.30;99.90;;;;;;5044317;28;20439;-52
2024/01/12 17:02:57;;;;;;;37.72;17.58;;;-1.20;99.90;;;;;;5044393;28;21205;-51
2024/01/12 17:05:22;;;;;;;37.83;18.52;;;-1.20;99.90;;;;;;5045314;28;20747;-50
2024/01/12 17:07:48;;;;;;;42.72;21.13;;;-1.20;99.90;;;;;;5043806;28;20484;-53
2024/01/12 17:10:14;;;;;;;42.50;19.73;;;-1.20;99.90;;;;;;5041567;28;20036;-55
2024/01/12 17:12:41;;;;;;;44.85;22.80;;;-1.30;99.90;;;;;;5044657;28;20045;-54
2024/01/12 17:15:07;;;;;;;41.92;20.45;;;-1.30;99.90;;;;;;5042942;28;20041;-55
2024/01/12 17:17:32;;;;;;;41.45;20.42;;;-1.30;99.90;;;;;;5041720;28;20124;-52
2024/01/12 17:19:58;;;;;;;45.38;20.40;;;-1.40;99.90;;;;;;5041172;28;20036;-54
2024/01/12 17:22:24;;;;;;;43.90;22.00;;;-1.40;99.90;;;;;;5043875;28;20031;-52
2024/01/12 17:24:51;;;;;;;42.90;21.90;;;-1.40;99.90;;;;;;5042560;28;20035;-53
2024/01/12 17:27:17;;;;;;;43.65;20.23;;;-1.40;99.90;;;;;;5040646;28;20479;-53
2024/01/12 17:29:43;;;;;;;43.78;20.00;;;-1.40;99.90;;;;;;5040047;28;20195;-52
2024/01/12 17:32:09;;;;;;;45.45;20.50;;;-1.40;99.90;;;;;;5043209;28;20028;-51
2024/01/12 17:34:37;;;;;;;41.83;20.70;;;-1.30;99.90;;;;;;5040761;28;20950;-50
2024/01/12 17:37:03;;;;;;;43.78;18.92;;;-1.40;99.90;;;;;;5041340;28;20033;-53
2024/01/12 17:39:28;;;;;;;42.67;21.38;;;-1.30;99.90;;;;;;5041543;28;20033;-53
2024/01/12 17:41:54;;;;;;;39.88;17.63;;;-1.40;99.90;;;;;;5042817;28;20502;-54
2024/01/12 17:44:21;;;;;;;32.70;15.75;;;-1.30;99.90;;;;;;5041112;28;20135;-52
2024/01/12 17:46:48;;;;;;;40.35;17.02;;;-1.30;99.90;;;;;;5040724;28;20033;-52
2024/01/12 17:49:13;;;;;;;39.53;17.40;;;-1.30;99.90;;;;;;5021957;28;20056;-54
2024/01/12 17:51:49;;;;;;;36.75;17.45;;;-1.30;99.90;;;;;;5042420;28;20032;-52
2024/01/12 17:54:23;;;;;;;65.82;27.65;;;-1.30;99.90;;;;;;5041605;28;20043;-52
2024/01/12 17:56:59;;;;;;;70.28;30.88;;;-1.30;99.90;;;;;;5039291;28;20048;-53
2024/01/12 17:59:28;;;;;;;71.78;30.63;;;-1.30;99.90;;;;;;5037582;28;20403;-53
2024/01/12 18:01:54;;;;;;;56.65;26.38;;;-1.30;99.90;;;;;;5040966;28;20044;-52
2024/01/12 18:04:20;;;;;;;60.47;26.25;;;-1.30;99.90;;;;;;5042416;28;20020;-51
2024/01/12 18:06:46;;;;;;;51.90;23.00;;;-1.30;99.90;;;;;;5042171;28;20028;-52
2024/01/12 18:09:12;;;;;;;47.38;23.17;;;-1.30;99.90;;;;;;5040360;28;20044;-52
2024/01/12 18:11:38;;;;;;;50.50;21.50;;;-1.30;99.90;;;;;;5039686;28;20060;-53
2024/01/12 18:14:03;;;;;;;46.88;22.98;;;-1.30;99.90;;;;;;5041525;28;20127;-51
2024/01/12 18:16:29;;;;;;;55.63;25.27;;;-1.30;99.90;;;;;;5041538;28;21612;-54
2024/01/12 18:18:55;;;;;;;53.65;24.55;;;-1.30;99.90;;;;;;5042010;28;20103;-52
2024/01/12 18:21:20;;;;;;;54.55;25.05;;;-1.30;99.90;;;;;;5037536;28;20158;-52
2024/01/12 18:23:46;;;;;;;43.78;19.77;;;-1.30;99.90;;;;;;5042917;28;20128;-50
2024/01/12 18:26:12;;;;;;;36.08;17.80;;;-1.30;99.90;;;;;;5042581;28;20122;-54
2024/01/12 18:28:38;;;;;;;36.20;16.52;;;-1.40;99.90;;;;;;5038064;28;21148;-53
2024/01/12 18:31:04;;;;;;;39.57;18.67;;;-1.40;99.90;;;;;;5038563;28;20047;-51
2024/01/12 18:33:30;;;;;;;32.80;16.43;;;-1.40;99.90;;;;;;5040520;28;20075;-52
2024/01/12 18:35:56;;;;;;;54.08;21.63;;;-1.40;99.90;;;;;;5043467;28;20766;-54
2024/01/12 18:38:22;;;;;;;41.50;18.48;;;-1.50;99.90;;;;;;5042267;28;20032;-52
2024/01/12 18:40:48;;;;;;;35.55;17.63;;;-1.50;99.90;;;;;;5039338;28;20624;-52
2024/01/12 18:43:14;;;;;;;40.27;17.20;;;-1.50;99.90;;;;;;5044365;28;20033;-54
2024/01/12 18:45:40;;;;;;;38.83;16.95;;;-1.50;99.90;;;;;;5042560;28;20189;-51
2024/01/12 18:48:06;;;;;;;40.47;18.40;;;-1.50;99.90;;;;;;5041411;28;20507;-51
2024/01/12 18:50:32;;;;;;;44.58;20.75;;;-1.50;99.90;;;;;;5041027;28;20040;-51
2024/01/12 18:52:57;;;;;;;64.68;25.58;;;-1.50;99.90;;;;;;5042254;28;20093;-50
2024/01/12 18:55:23;;;;;;;47.92;21.05;;;-1.50;99.90;;;;;;5042973;28;20490;-52
2024/01/12 18:57:49;;;;;;;54.42;20.50;;;-1.50;99.90;;;;;;5041965;28;20707;-53
2024/01/12 19:00:16;;;;;;;52.72;21.98;;;-1.50;99.90;;;;;;5039428;28;20055;-52
2024/01/12 19:02:42;;;;;;;47.30;19.60;;;-1.50;99.90;;;;;;5042683;28;20021;-51
2024/01/12 19:05:08;;;;;;;50.58;22.58;;;-1.50;99.90;;;;;;5042727;28;20036;-55
2024/01/12 19:07:34;;;;;;;42.03;19.80;;;-1.50;99.90;;;;;;5041195;28;20043;-52
2024/01/12 19:09:59;;;;;;;47.83;19.10;;;-1.60;99.90;;;;;;5040053;28;20036;-51
2024/01/12 19:12:25;;;;;;;50.80;20.52;;;-1.50;99.90;;;;;;5043034;28;20043;-53
2024/01/12 19:14:50;;;;;;;49.67;23.02;;;-1.60;99.90;;;;;;5042339;28;20071;-54
2024/01/12 19:17:16;;;;;;;47.60;19.02;;;-1.60;99.90;;;;;;5041861;28;20086;-52
2024/01/12 19:19:42;;;;;;;48.63;22.88;;;-1.60;99.90;;;;;;5039035;28;20036;-52
2024/01/12 19:22:07;;;;;;;45.92;21.40;;;-1.60;1.00;;;;;;5041177;28;21569;-51
2024/01/12 19:24:33;;;;;;;46.40;20.80;;;-1.60;1.00;;;;;;5041811;28;20054;-52
2024/01/12 19:26:59;;;;;;;40.45;19.80;;;-1.60;1.00;;;;;;5040528;28;20036;-51
2024/01/12 19:29:24;;;;;;;43.80;21.08;;;-1.70;47.20;;;;;;5038671;28;20503;-55
2024/01/12 19:31:50;;;;;;;45.37;20.60;;;-1.60;99.90;;;;;;5042423;28;20052;-53
2024/01/12 19:34:16;;;;;;;57.57;23.57;;;-1.70;99.90;;;;;;5041385;28;20037;-52
2024/01/12 19:36:43;;;;;;;49.40;22.47;;;-1.70;99.90;;;;;;5041256;28;20032;-54
2024/01/12 19:39:14;;;;;;;50.55;22.20;;;-1.70;1.00;;;;;;5039597;28;20118;-50
2024/01/12 19:41:40;;;;;;;68.53;28.23;;;-1.80;93.10;;;;;;5043269;28;20166;-53
2024/01/12 19:44:05;;;;;;;76.88;30.63;;;-1.80;1.00;;;;;;5043109;28;20599;-51
2024/01/12 19:46:31;;;;;;;92.07;34.83;;;-1.80;99.90;;;;;;5042719;28;20458;-50
2024/01/12 19:48:57;;;;;;;82.40;35.13;;;-1.70;99.90;;;;;;5042426;28;20608;-52
2024/01/12 19:51:24;;;;;;;94.03;40.17;;;-1.80;99.90;;;;;;5038425;28;20021;-53
2024/01/12 19:53:50;;;;;;;94.85;40.47;;;-1.80;99.90;;;;;;5042888;28;20040;-51
2024/01/12 19:56:16;;;;;;;94.38;40.78;;;-1.90;99.90;;;;;;5041686;28;20037;-51
2024/01/12 19:58:41;;;;;;;97.50;43.25;;;-1.90;76.00;;;;;;5041458;28;20029;-51
2024/01/12 20:01:09;;;;;;;104.80;41.40;;;-1.90;1.00;;;;;;5039376;28;20131;-52
2024/01/12 20:03:37;;;;;;;96.38;42.30;;;-1.80;1.00;;;;;;5041845;28;20171;-52
2024/01/12 20:06:03;;;;;;;98.40;41.80;;;-1.80;1.00;;;;;;5040798;28;20032;-53
2024/01/12 20:08:29;;;;;;;109.97;44.33;;;-1.80;99.90;;;;;;5041561;28;20114;-56
2024/01/12 20:10:55;;;;;;;112.00;42.53;;;-1.80;99.90;;;;;;5039199;28;20036;-52
2024/01/12 20:13:23;;;;;;;105.75;42.53;;;-1.80;99.90;;;;;;5041086;28;20123;-51
2024/01/12 20:15:52;;;;;;;104.00;44.17;;;-1.90;99.90;;;;;;5042165;28;20040;-52
2024/01/12 20:18:18;;;;;;;95.28;40.13;;;-1.80;99.90;;;;;;5038283;28;20025;-55
2024/01/12 20:20:43;;;;;;;100.72;41.80;;;-1.90;99.90;;;;;;5036903;28;20043;-55
2024/01/12 20:23:09;;;;;;;101.90;42.75;;;-1.90;1.00;;;;;;5041131;28;20028;-53
2024/01/12 20:25:37;;;;;;;100.32;42.30;;;-1.90;99.90;;;;;;5040854;28;21070;-51
2024/01/12 20:28:05;;;;;;;102.78;41.28;;;-1.90;99.90;;;;;;5040164;28;20140;-53
2024/01/12 20:30:30;;;;;;;92.55;39.63;;;-1.90;99.90;;;;;;5038396;28;20037;-54
2024/01/12 20:32:56;;;;;;;90.13;38.13;;;-1.90;99.90;;;;;;5039719;28;20032;-52
2024/01/12 20:35:22;;;;;;;99.20;40.30;;;-1.90;99.90;;;;;;5042853;28;20059;-53
2024/01/12 20:37:48;;;;;;;101.10;39.63;;;-1.90;96.00;;;;;;5045094;28;20036;-51
2024/01/12 20:40:13;;;;;;;94.13;41.13;;;-1.80;99.90;;;;;;5041388;28;20037;-53
2024/01/12 20:42:39;;;;;;;99.68;38.60;;;-1.80;1.00;;;;;;5044981;28;20478;-52
2024/01/12 20:45:06;;;;;;;90.95;38.17;;;-1.80;99.90;;;;;;5045320;28;20044;-52
2024/01/12 20:47:32;;;;;;;99.47;40.95;;;-1.80;99.90;;;;;;5043231;28;20032;-51
2024/01/12 20:49:57;;;;;;;91.60;40.08;;;-1.80;99.90;;;;;;5043327;28;20098;-52
2024/01/12 20:52:23;;;;;;;94.45;36.95;;;-1.80;99.90;;;;;;5046288;28;20756;-54
2024/01/12 20:54:49;;;;;;;90.30;37.10;;;-1.80;99.90;;;;;;5044272;28;20067;-53
2024/01/12 20:57:15;;;;;;;81.37;35.00;;;-1.70;99.90;;;;;;5045060;28;20043;-52
2024/01/12 20:59:41;;;;;;;86.40;35.10;;;-1.70;93.60;;;;;;5042559;28;20036;-55
2024/01/12 21:02:06;;;;;;;85.78;37.05;;;-1.70;68.70;;;;;;5046539;28;20068;-51
2024/01/12 21:04:32;;;;;;;93.57;36.42;;;-1.70;16.00;;;;;;5045093;28;20175;-52
2024/01/12 21:06:58;;;;;;;85.95;34.95;;;-1.80;1.00;;;;;;5044616;28;20120;-52
2024/01/12 21:09:23;;;;;;;88.75;36.03;;;-1.70;1.00;;;;;;5041458;28;20132;-54
2024/01/12 21:11:49;;;;;;;95.35;33.83;;;-1.80;99.90;;;;;;5045720;28;20089;-53
2024/01/12 21:14:15;;;;;;;91.20;38.67;;;-1.80;99.90;;;;;;5045197;28;20102;-52
2024/01/12 21:16:40;;;;;;;82.43;36.13;;;-1.80;99.90;;;;;;5044034;28;20475;-52
2024/01/12 21:19:06;;;;;;;101.23;41.70;;;-1.80;16.00;;;;;;5042959;28;20032;-53
2024/01/12 21:21:31;;;;;;;78.53;33.67;;;-1.70;37.30;;;;;;5043975;28;20037;-52
2024/01/12 21:23:57;;;;;;;74.60;32.85;;;-1.80;99.90;;;;;;5044614;28;20086;-51
2024/01/12 21:26:23;;;;;;;88.90;35.75;;;-1.80;28.40;;;;;;5045396;28;20871;-51
2024/01/12 21:28:49;;;;;;;85.22;33.28;;;-1.80;99.90;;;;;;5043320;28;20042;-53
2024/01/12 21:31:15;;;;;;;72.50;34.85;;;-1.70;1.00;;;;;;5041660;28;20120;-53
2024/01/12 21:33:40;;;;;;;91.40;35.83;;;-1.70;99.90;;;;;;5043736;28;20033;-53
2024/01/12 21:36:07;;;;;;;86.38;37.03;;;-1.70;99.90;;;;;;5043872;28;20089;-51
2024/01/12 21:38:33;;;;;;;75.07;32.95;;;-1.70;1.00;;;;;;5042772;28;20553;-53
2024/01/12 21:40:58;;;;;;;88.20;34.33;;;-1.70;99.90;;;;;;5040517;28;20043;-53
2024/01/12 21:43:24;;;;;;;82.63;31.50;;;-1.70;25.80;;;;;;5042815;28;20032;-54
2024/01/12 21:45:50;;;;;;;74.13;31.48;;;-1.70;99.90;;;;;;5043389;28;20032;-53
2024/01/12 21:48:16;;;;;;;83.78;34.92;;;-1.70;1.00;;;;;;5042580;28;20499;-53
2024/01/12 21:50:41;;;;;;;80.47;34.20;;;-1.70;53.30;;;;;;5039248;28;20028;-55
2024/01/12 21:53:07;;;;;;;73.47;31.88;;;-1.70;1.00;;;;;;5042963;28;20107;-52
2024/01/12 21:55:33;;;;;;;73.63;28.83;;;-1.70;1.00;;;;;;5042879;28;20063;-51
2024/01/12 21:58:04;;;;;;;74.45;31.95;;;-1.80;99.90;;;;;;5041722;28;20040;-50
2024/01/12 22:00:31;;;;;;;81.60;33.45;;;-1.80;1.00;;;;;;5039684;28;20055;-52
2024/01/12 22:02:57;;;;;;;;;;;-1.80;1.00;;;;;;5043324;28;20029;-52
2024/01/12 22:05:22;;;;;;;75.10;31.25;;;-1.80;38.80;;;;;;5042392;28;19935;-52
2024/01/12 22:07:48;;;;;;;81.97;34.28;;;-1.80;15.50;;;;;;5041781;28;20045;-55
2024/01/12 22:10:14;;;;;;;74.13;32.07;;;-1.80;1.00;;;;;;5040532;28;20043;-52
2024/01/12 22:12:39;;;;;;;66.20;32.45;;;-1.80;1.00;;;;;;5043247;28;20036;-51
2024/01/12 22:15:07;;;;;;;73.82;31.38;;;-1.80;1.00;;;;;;5044216;28;20082;-51
2024/01/12 22:17:39;;;;;;;71.57;30.58;;;-1.80;1.00;;;;;;5043124;28;20032;-52
2024/01/12 22:20:20;;;;;;;65.22;28.20;;;-1.90;1.00;;;;;;5040965;28;20051;-52
2024/01/12 22:22:46;;;;;;;68.03;28.85;;;-1.90;99.90;;;;;;5044150;28;20028;-53
2024/01/12 22:25:14;;;;;;;63.65;29.52;;;-1.90;1.00;;;;;;5048221;28;20025;-52
2024/01/12 22:27:40;;;;;;;71.70;28.27;;;-1.90;99.90;;;;;;5043319;28;20028;-54
2024/01/12 22:30:07;;;;;;;60.88;26.67;;;-1.90;1.00;;;;;;5039652;28;20636;-55
2024/01/12 22:32:33;;;;;;;;;;;-1.90;19.20;;;;;;5039882;28;20530;-54
2024/01/12 22:34:59;;;;;;;51.70;24.88;;;-1.90;53.80;;;;;;5042157;28;19991;-50
2024/01/12 22:37:25;;;;;;;57.78;26.65;;;-1.90;1.00;;;;;;5042209;28;20031;-51
2024/01/12 22:39:50;;;;;;;61.50;28.87;;;-1.90;1.00;;;;;;5039469;28;20027;-51
2024/01/12 22:42:16;;;;;;;54.53;24.60;;;-1.90;1.00;;;;;;5043386;28;20917;-53
2024/01/12 22:44:41;;;;;;;59.05;25.75;;;-1.90;99.90;;;;;;5042848;28;20432;-54
2024/01/12 22:47:07;;;;;;;63.15;28.85;;;-1.90;99.90;;;;;;5042082;28;20029;-50
2024/01/12 22:49:33;;;;;;;58.25;24.42;;;-1.90;99.90;;;;;;5039701;28;20486;-54
2024/01/12 22:51:58;;;;;;;58.92;26.08;;;-1.90;99.90;;;;;;5042780;28;20048;-52
2024/01/12 22:54:24;;;;;;;56.92;25.55;;;-1.90;99.90;;;;;;5042974;28;20650;-52
2024/01/12 22:56:50;;;;;;;58.70;27.17;;;-1.90;1.00;;;;;;5041686;28;20485;-53
2024/01/12 22:59:15;;;;;;;53.15;25.10;;;-1.90;99.90;;;;;;5039234;28;20055;-54
2024/01/12 23:01:41;;;;;;;67.53;28.20;;;-1.90;99.90;;;;;;5043356;28;20180;-53
2024/01/12 23:04:06;;;;;;;57.17;25.08;;;-1.90;1.00;;;;;;5042717;28;20043;-53
2024/01/12 23:06:32;;;;;;;52.03;26.52;;;-1.90;1.00;;;;;;5042503;28;20040;-53
2024/01/12 23:08:58;;;;;;;55.40;24.77;;;-1.80;1.00;;;;;;5042747;28;20653;-52
2024/01/12 23:11:23;;;;;;;55.20;25.90;;;-1.90;1.00;;;;;;5039512;28;20036;-56
2024/01/12 23:13:49;;;;;;;59.78;27.25;;;-1.90;99.90;;;;;;5042081;28;20384;-55
